createdAt,value
2023-05-09T03:06:10.171Z,12.38
2023-05-09T03:09:21.203Z,12.47
2023-05-09T03:12:32.102Z,12.55
2023-05-09T03:15:43.017Z,12.61
2023-05-09T03:18:56.304Z,12.65
2023-05-09T03:22:08.426Z,12.67
2023-05-09T03:25:26.511Z,12.71
2023-05-09T03:28:37.842Z,12.69
2023-05-09T03:31:49.974Z,12.64
2023-05-09T03:35:00.743Z,12.66
2023-05-09T03:38:13.310Z,12.68
2023-05-09T03:41:24.663Z,12.81
2023-05-09T03:44:36.297Z,12.90
2023-05-09T03:47:47.517Z,12.92
2023-05-09T03:50:59.057Z,12.96
2023-05-09T03:54:13.670Z,13.03
2023-05-09T03:57:24.659Z,13.10
2023-05-09T04:00:39.332Z,13.05
2023-05-09T04:03:55.158Z,13.04
2023-05-09T04:07:06.169Z,12.99
2023-05-09T04:10:18.382Z,12.97
2023-05-09T04:13:31.385Z,12.97
2023-05-09T04:16:44.938Z,12.97
2023-05-09T04:19:56.406Z,12.94
2023-05-09T04:23:07.318Z,13.01
2023-05-09T04:26:19.599Z,13.10
2023-05-09T04:29:32.943Z,13.19
2023-05-09T04:32:46.265Z,13.23
2023-05-09T04:35:57.932Z,13.28
2023-05-09T04:39:10.481Z,13.35
2023-05-09T04:42:25.394Z,13.40
2023-05-09T04:45:36.176Z,13.44
2023-05-09T04:48:47.079Z,13.48
2023-05-09T04:51:57.997Z,13.41
2023-05-09T04:55:09.808Z,13.41
2023-05-09T04:58:26.775Z,13.48
2023-05-09T05:01:40.083Z,13.63
2023-05-09T05:47:49.599Z,15.29
2023-05-09T05:51:01.801Z,15.26
2023-05-09T05:54:20.920Z,15.34
2023-05-09T05:57:32.002Z,15.47
2023-05-09T06:00:43.251Z,15.55
2023-05-09T06:03:56.258Z,15.68
2023-05-09T06:07:11.075Z,15.67
2023-05-09T06:10:22.363Z,15.80
2023-05-09T06:13:33.182Z,15.87
2023-05-09T06:16:49.041Z,15.92
2023-05-09T06:20:01.150Z,15.92
2023-05-09T06:23:12.465Z,16.06
2023-05-09T06:26:24.480Z,16.20
2023-05-09T06:29:36.396Z,16.35
2023-05-09T06:32:47.438Z,16.39
2023-05-09T06:36:00.750Z,16.53
2023-05-09T06:39:12.823Z,16.68
2023-05-09T06:42:23.525Z,16.60
2023-05-09T06:45:34.525Z,16.61
2023-05-09T06:48:46.152Z,16.61
2023-05-09T06:51:58.999Z,16.60
2023-05-09T06:55:11.669Z,16.53
2023-05-09T06:58:23.523Z,16.56
2023-05-09T07:01:34.729Z,16.70
2023-05-09T07:04:45.848Z,16.84
2023-05-09T07:07:58.250Z,16.95
2023-05-09T07:11:08.822Z,17.10
2023-05-09T07:14:20.684Z,17.23
2023-05-09T07:17:31.559Z,17.37
2023-05-09T07:20:42.417Z,17.48
2023-05-09T07:23:54.535Z,17.44
2023-05-09T07:27:06.038Z,17.46
2023-05-09T07:30:17.190Z,17.44
2023-05-09T07:33:28.064Z,17.29
2023-05-09T07:39:52.112Z,17.44
2023-05-09T07:43:02.905Z,17.50
2023-05-09T07:46:13.863Z,17.55
2023-05-09T07:49:24.853Z,17.66
2023-05-09T07:52:35.737Z,17.80
2023-05-09T07:55:50.071Z,17.90
2023-05-09T07:59:00.943Z,17.93
2023-05-09T08:02:11.881Z,17.88
2023-05-09T08:05:22.714Z,18.00
2023-05-09T08:08:33.534Z,18.06
2023-05-09T08:11:45.998Z,18.01
2023-05-09T08:14:56.703Z,18.07
2023-05-09T08:18:07.928Z,17.97
2023-05-09T08:21:20.853Z,17.88
2023-05-09T08:24:33.732Z,17.82
2023-05-09T08:27:46.451Z,17.76
2023-05-09T08:30:58.698Z,17.74
2023-05-09T08:34:11.359Z,17.62
2023-05-09T08:37:22.753Z,17.68
2023-05-09T08:40:38.276Z,17.61
2023-05-09T08:43:51.419Z,17.46
2023-05-09T08:47:03.661Z,17.66
2023-05-09T08:50:15.988Z,17.85
2023-05-09T08:53:27.181Z,17.87
2023-05-09T08:56:39.575Z,18.12
2023-05-09T08:59:53.802Z,18.18
2023-05-09T09:03:05.161Z,18.14
2023-05-09T09:06:17.354Z,18.18
2023-05-09T09:09:29.625Z,18.53
2023-05-09T09:12:41.987Z,18.87
2023-05-09T09:15:56.099Z,19.27
2023-05-09T09:19:10.181Z,19.64
2023-05-09T09:22:21.650Z,19.65
2023-05-09T09:25:32.296Z,19.74
2023-05-09T09:28:44.603Z,19.94
2023-05-09T09:31:57.274Z,20.06
2023-05-09T09:35:09.401Z,20.20
2023-05-09T09:38:21.322Z,20.29
2023-05-09T09:41:33.911Z,20.31
2023-05-09T09:44:44.441Z,20.40
2023-05-09T09:47:56.435Z,20.46
2023-05-09T09:51:11.949Z,20.38
2023-05-09T09:54:23.336Z,20.56
2023-05-09T09:57:36.481Z,20.72
2023-05-09T10:00:47.490Z,20.86
2023-05-09T10:03:59.473Z,21.04
2023-05-09T10:07:15.159Z,21.04
2023-05-09T10:10:28.779Z,20.95
2023-05-09T10:13:39.755Z,20.82
2023-05-09T10:16:51.806Z,20.86
2023-05-09T10:20:06.873Z,20.67
2023-05-09T10:23:19.995Z,20.33
2023-05-09T10:26:37.830Z,20.04
2023-05-09T10:29:53.437Z,19.93
2023-05-09T10:33:05.764Z,19.69
2023-05-09T10:36:20.893Z,19.46
2023-05-09T10:39:32.684Z,19.31
2023-05-09T10:42:44.368Z,19.24
2023-05-09T10:45:56.193Z,19.37
2023-05-09T10:49:08.000Z,19.64
2023-05-09T10:52:22.814Z,20.04
2023-05-09T10:55:38.938Z,20.34
2023-05-09T10:58:49.801Z,20.32
2023-05-09T11:02:03.199Z,20.13
2023-05-09T11:05:16.184Z,19.97
2023-05-09T11:08:30.111Z,19.71
2023-05-09T11:11:53.680Z,19.48
2023-05-09T11:15:09.298Z,19.43
2023-05-09T11:18:20.478Z,19.26
2023-05-09T11:21:31.267Z,18.88
2023-05-09T11:24:47.824Z,18.60
2023-05-09T11:28:02.318Z,18.54
2023-05-09T11:31:15.105Z,18.55
2023-05-09T11:34:26.098Z,18.48
2023-05-09T11:37:45.576Z,18.46
2023-05-09T11:40:58.163Z,18.53
2023-05-09T11:44:16.113Z,18.64
2023-05-09T11:47:29.042Z,18.76
2023-05-09T11:50:41.554Z,18.82
2023-05-09T11:53:54.377Z,18.88
2023-05-09T11:57:07.232Z,19.00
2023-05-09T12:00:19.392Z,19.31
2023-05-09T12:03:31.153Z,19.65
2023-05-09T12:06:43.288Z,19.91
2023-05-09T12:09:55.120Z,20.06
2023-05-09T12:13:07.549Z,20.25
2023-05-09T12:16:19.327Z,20.26
2023-05-09T12:19:30.549Z,20.01
2023-05-09T12:22:44.895Z,19.78
2023-05-09T12:25:57.504Z,19.66
2023-05-09T12:29:15.968Z,19.54
2023-05-09T12:32:31.818Z,19.32
2023-05-09T12:35:47.050Z,19.16
2023-05-09T12:38:58.781Z,18.98
2023-05-09T12:42:14.281Z,18.80
2023-05-09T12:45:26.561Z,18.58
2023-05-09T12:48:40.217Z,18.40
2023-05-09T12:51:51.415Z,18.42
2023-05-09T12:55:08.012Z,18.46
2023-05-09T12:58:20.645Z,18.49
2023-05-09T13:01:32.604Z,18.40
2023-05-09T13:04:43.387Z,18.53
2023-05-09T13:07:58.405Z,18.61
2023-05-09T13:11:16.657Z,18.61
2023-05-09T13:14:28.840Z,18.65
2023-05-09T13:17:40.920Z,18.76
2023-05-09T13:20:52.698Z,18.63
2023-05-09T13:24:03.170Z,18.68
2023-05-09T13:27:14.094Z,18.79
2023-05-09T13:30:25.116Z,18.97
2023-05-09T13:33:37.592Z,19.01
2023-05-09T13:36:48.449Z,19.06
2023-05-09T13:39:59.609Z,19.12
2023-05-09T13:43:10.502Z,19.31
2023-05-09T13:46:21.733Z,19.32
2023-05-09T13:49:33.763Z,19.41
2023-05-09T13:52:46.125Z,19.45
2023-05-09T13:55:57.884Z,19.22
2023-05-09T13:59:08.678Z,19.41
2023-05-09T14:02:18.990Z,19.59
2023-05-09T14:05:32.960Z,19.78
2023-05-09T14:08:43.614Z,19.88
2023-05-09T14:11:55.450Z,19.87
2023-05-09T14:15:06.849Z,19.91
2023-05-09T14:18:20.812Z,19.83
2023-05-09T14:21:33.517Z,19.77
2023-05-09T14:24:43.872Z,19.66
2023-05-09T14:27:55.554Z,19.52
2023-05-09T14:31:07.175Z,19.48
2023-05-09T14:34:18.100Z,19.53
2023-05-09T14:37:30.772Z,19.55
2023-05-09T14:40:41.571Z,19.57
2023-05-09T14:43:53.527Z,19.56
2023-05-09T14:47:04.504Z,19.52
2023-05-09T14:50:16.442Z,19.49
2023-05-09T14:53:30.000Z,19.44
2023-05-09T14:56:41.376Z,19.41
2023-05-09T14:59:52.806Z,19.45
2023-05-09T15:03:03.814Z,19.53
2023-05-09T15:06:15.521Z,19.70
2023-05-09T15:09:28.242Z,19.72
2023-05-09T15:12:38.971Z,19.72
2023-05-09T15:15:49.776Z,19.72
2023-05-09T15:19:00.485Z,19.68
2023-05-09T15:22:11.499Z,19.65
2023-05-09T15:25:23.837Z,19.68
2023-05-09T15:28:35.844Z,19.50
2023-05-09T15:31:46.608Z,19.40
2023-05-09T15:34:57.503Z,19.35
2023-05-09T15:38:12.207Z,19.23
2023-05-09T15:41:24.671Z,19.21
2023-05-09T15:44:36.078Z,19.05
2023-05-09T15:47:46.917Z,18.98
2023-05-09T15:50:57.935Z,18.95
2023-05-09T15:54:08.862Z,18.96
2023-05-09T15:57:21.246Z,18.88
2023-05-09T16:00:32.533Z,18.69
2023-05-09T16:03:43.445Z,18.38
2023-05-09T16:06:55.566Z,17.92
2023-05-09T16:10:07.337Z,17.77
2023-05-09T16:13:19.369Z,17.46
2023-05-09T16:16:30.297Z,17.13
2023-05-09T16:19:41.221Z,17.01
2023-05-09T16:22:52.321Z,16.87
2023-05-09T16:26:03.204Z,16.77
2023-05-09T16:29:15.336Z,16.73
2023-05-09T16:32:26.272Z,16.78
2023-05-09T16:35:37.505Z,16.67
2023-05-09T16:38:48.968Z,16.63
2023-05-09T16:42:00.498Z,16.73
2023-05-09T16:45:12.713Z,16.81
2023-05-09T16:48:24.597Z,16.78
2023-05-09T16:51:36.039Z,16.79
2023-05-09T16:54:47.120Z,16.65
2023-05-09T16:57:58.562Z,16.65
2023-05-09T17:01:11.670Z,16.64
2023-05-09T17:04:22.360Z,16.40
2023-05-09T17:07:33.322Z,16.17
2023-05-09T17:10:44.537Z,16.20
2023-05-09T17:13:55.480Z,16.25
2023-05-09T17:17:08.043Z,16.25
2023-05-09T17:20:19.489Z,16.06
2023-05-09T17:23:30.720Z,16.16
2023-05-09T17:26:42.301Z,16.30
2023-05-09T17:29:53.569Z,16.29
2023-05-09T17:33:05.660Z,16.21
2023-05-09T17:36:16.492Z,16.16
2023-05-09T17:39:27.428Z,16.13
2023-05-09T17:42:38.767Z,16.09
2023-05-09T17:45:50.108Z,16.07
2023-05-09T17:49:02.695Z,16.00
2023-05-09T17:52:13.773Z,15.98
2023-05-09T17:55:24.697Z,15.93
2023-05-09T17:58:35.656Z,15.71
2023-05-09T18:01:46.664Z,15.67
2023-05-09T18:04:58.980Z,15.60
2023-05-09T18:08:09.617Z,15.59
2023-05-09T18:11:20.961Z,15.55
2023-05-09T18:14:31.796Z,15.52
2023-05-09T18:17:43.061Z,15.52
2023-05-09T18:20:55.174Z,15.47
2023-05-09T18:24:06.386Z,15.54
2023-05-09T18:27:17.319Z,15.56
2023-05-09T18:30:28.845Z,15.47
2023-05-09T18:33:40.305Z,15.49
2023-05-09T18:36:52.717Z,15.52
2023-05-09T18:40:03.559Z,15.56
2023-05-09T18:43:14.367Z,15.56
2023-05-09T18:46:28.006Z,15.54
2023-05-09T18:49:39.020Z,15.45
2023-05-09T18:52:51.200Z,15.44
2023-05-09T18:56:02.302Z,15.35
2023-05-09T18:59:16.433Z,15.35
2023-05-09T19:02:28.242Z,15.31
2023-05-09T19:05:40.578Z,15.21
2023-05-09T19:08:54.539Z,15.17
2023-05-09T19:12:07.138Z,15.21
2023-05-09T19:15:21.210Z,15.17
2023-05-09T19:18:34.063Z,15.10
2023-05-09T19:21:47.996Z,15.08
2023-05-09T19:25:02.827Z,15.01
2023-05-09T19:28:15.397Z,14.94
2023-05-09T19:31:30.646Z,14.93
2023-05-09T19:34:43.307Z,14.89
2023-05-09T19:37:57.963Z,14.99
2023-05-09T19:41:13.398Z,15.04
2023-05-09T19:44:26.844Z,15.03
2023-05-09T19:47:39.586Z,14.98
2023-05-09T19:50:52.775Z,15.01
2023-05-09T19:54:05.543Z,15.01
2023-05-09T19:57:19.946Z,14.98
2023-05-09T20:00:33.237Z,14.93
2023-05-09T20:03:47.099Z,14.97
2023-05-09T20:06:59.533Z,14.94
2023-05-09T20:10:13.489Z,14.98
2023-05-09T20:13:27.414Z,14.98
